createdAt,value
2019-05-01T00:05:27.767Z,11.68
2019-05-01T00:11:32.416Z,11.94
2019-05-01T00:17:37.061Z,11.68
2019-05-01T00:23:41.630Z,11.80
2019-05-01T00:29:46.302Z,11.89
2019-05-01T00:35:50.888Z,11.82
2019-05-01T00:41:55.443Z,11.88
2019-05-01T00:48:00.024Z,11.88
2019-05-01T00:54:04.747Z,11.97
2019-05-01T01:00:27.752Z,11.97
2019-05-01T01:06:32.581Z,11.88
2019-05-01T01:12:37.204Z,11.91
2019-05-01T01:18:41.768Z,11.87
2019-05-01T01:24:46.389Z,11.98
2019-05-01T01:30:56.451Z,11.89
2019-05-01T01:36:57.529Z,11.72
2019-05-01T01:43:19.972Z,11.74
2019-05-01T01:49:24.664Z,11.39
2019-05-01T01:55:29.404Z,11.32
2019-05-01T02:01:38.582Z,11.40
2019-05-01T02:07:43.674Z,11.41
2019-05-01T02:13:48.397Z,11.37
2019-05-01T02:19:53.101Z,11.25
2019-05-01T02:25:57.651Z,11.42
2019-05-01T02:32:02.825Z,11.24
2019-05-01T02:38:09.222Z,11.30
2019-05-01T02:44:21.389Z,11.27
2019-05-01T02:50:28.804Z,11.40
2019-05-01T02:56:48.101Z,11.21
2019-05-01T03:02:52.979Z,11.15
2019-05-01T03:09:00.122Z,11.08
2019-05-01T03:15:07.063Z,11.13
2019-05-01T03:21:32.208Z,11.05
2019-05-01T03:27:36.903Z,10.90
2019-05-01T03:33:42.673Z,10.75
2019-05-01T03:39:47.611Z,10.63
2019-05-01T03:45:53.244Z,10.67
2019-05-01T03:51:59.925Z,10.50
2019-05-01T03:58:05.133Z,10.31
2019-05-01T04:04:17.784Z,10.32
2019-05-01T04:10:22.675Z,10.31
2019-05-01T04:16:28.256Z,10.28
2019-05-01T04:22:33.595Z,10.26
2019-05-01T04:28:56.459Z,10.30
2019-05-01T04:35:17.965Z,10.34
2019-05-01T04:41:22.596Z,10.51
2019-05-01T04:47:27.444Z,10.51
2019-05-01T04:53:32.051Z,10.41
2019-05-01T04:59:36.697Z,10.52
2019-05-01T05:05:41.958Z,10.60
2019-05-01T05:11:48.289Z,10.67
2019-05-01T05:17:53.135Z,10.79
2019-05-01T05:23:57.759Z,11.06
2019-05-01T05:30:02.659Z,11.46
2019-05-01T05:36:09.258Z,11.62
2019-05-01T05:42:14.339Z,11.56
2019-05-01T05:48:18.966Z,11.70
2019-05-01T05:54:31.156Z,11.77
2019-05-01T06:00:39.330Z,11.86
2019-05-01T06:06:49.978Z,11.73
2019-05-01T06:12:57.911Z,11.67
2019-05-01T06:19:04.105Z,11.73
2019-05-01T06:25:21.319Z,12.02
2019-05-01T06:31:23.217Z,12.07
2019-05-01T06:37:45.896Z,12.60
2019-05-01T06:43:52.395Z,13.41
2019-05-01T06:50:15.121Z,13.77
2019-05-01T06:56:19.739Z,13.91
2019-05-01T07:02:25.044Z,14.02
2019-05-01T07:08:34.210Z,14.07
2019-05-01T07:14:36.861Z,14.05
2019-05-01T07:20:47.234Z,13.83
2019-05-01T07:26:52.144Z,14.24
2019-05-01T07:32:56.940Z,14.52
2019-05-01T07:39:01.767Z,14.80
2019-05-01T07:45:20.767Z,15.46
2019-05-01T07:51:25.583Z,15.26
2019-05-01T07:57:34.173Z,15.74
2019-05-01T08:03:38.070Z,16.04
2019-05-01T08:09:45.750Z,16.51
2019-05-01T08:15:49.483Z,16.77
2019-05-01T08:22:02.900Z,16.92
2019-05-01T08:28:18.369Z,16.66
2019-05-01T08:34:33.603Z,16.80
2019-05-01T08:40:38.299Z,16.57
2019-05-01T08:46:46.890Z,16.98
2019-05-01T08:52:59.590Z,17.15
2019-05-01T08:59:04.288Z,17.67
2019-05-01T09:05:26.954Z,17.53
2019-05-01T09:11:15.333Z,17.20
2019-05-01T09:17:19.961Z,17.24
2019-05-01T09:23:24.602Z,17.96
2019-05-01T09:29:30.869Z,18.07
2019-05-01T09:35:35.561Z,17.82
2019-05-01T09:41:43.229Z,17.54
2019-05-01T09:47:46.666Z,17.63
2019-05-01T09:53:56.859Z,18.44
2019-05-01T10:00:01.486Z,18.11
2019-05-01T10:06:07.651Z,18.79
2019-05-01T10:12:13.177Z,18.43
2019-05-01T10:18:17.846Z,18.66
2019-05-01T10:24:22.480Z,19.08
2019-05-01T10:30:31.690Z,19.68
2019-05-01T10:36:49.893Z,19.92
2019-05-01T10:42:51.932Z,19.83
2019-05-01T10:48:57.505Z,20.13
2019-05-01T10:55:02.149Z,19.93
2019-05-01T11:01:10.794Z,20.00
2019-05-01T11:07:15.440Z,20.14
2019-05-01T11:13:19.996Z,20.58
2019-05-01T11:19:24.629Z,20.64
2019-05-01T11:25:29.506Z,21.40
2019-05-01T11:31:50.588Z,22.23
2019-05-01T11:37:59.219Z,22.91
2019-05-01T11:44:03.845Z,23.00
2019-05-01T11:50:08.933Z,24.22
2019-05-01T11:56:13.517Z,24.27
2019-05-01T12:02:18.773Z,23.82
2019-05-01T12:08:23.423Z,24.24
2019-05-01T12:14:27.983Z,24.11
2019-05-01T12:20:32.695Z,23.61
2019-05-01T12:26:37.319Z,24.63
2019-05-01T12:32:41.867Z,23.77
2019-05-01T12:38:46.430Z,24.47
2019-05-01T12:44:51.066Z,24.26
2019-05-01T12:50:55.889Z,23.38
2019-05-01T12:57:02.029Z,23.63
2019-05-01T13:03:06.718Z,23.41
2019-05-01T13:09:11.690Z,24.13
2019-05-01T13:15:16.367Z,23.82
2019-05-01T13:21:20.919Z,24.18
2019-05-01T13:27:43.440Z,24.51
2019-05-01T13:33:48.087Z,26.57
2019-05-01T13:39:52.715Z,25.75
2019-05-01T13:45:57.347Z,26.30
2019-05-01T13:52:01.971Z,26.61
2019-05-01T13:58:06.661Z,28.05
2019-05-01T14:04:13.099Z,28.56
2019-05-01T14:10:17.969Z,29.66
2019-05-01T14:16:22.552Z,28.44
2019-05-01T14:22:34.868Z,26.69
2019-05-01T14:28:39.500Z,27.50
2019-05-01T14:34:44.052Z,27.58
2019-05-01T14:40:48.685Z,27.39
2019-05-01T14:46:53.402Z,27.64
2019-05-01T14:52:57.969Z,27.35
2019-05-01T14:59:02.541Z,25.78
2019-05-01T15:05:08.073Z,27.37
2019-05-01T15:11:12.698Z,27.13
2019-05-01T15:17:18.893Z,27.91
2019-05-01T15:23:23.475Z,28.45
2019-05-01T15:29:28.042Z,28.86
2019-05-01T15:35:32.609Z,28.86
2019-05-01T15:41:54.969Z,30.31
2019-05-01T15:47:59.598Z,29.04
2019-05-01T15:54:04.328Z,29.72
2019-05-01T16:00:12.840Z,27.03
2019-05-01T16:06:17.400Z,26.84
2019-05-01T16:12:32.747Z,28.86
2019-05-01T16:18:37.314Z,27.99
2019-05-01T16:24:41.871Z,27.16
2019-05-01T16:30:46.510Z,26.92
2019-05-01T16:36:51.134Z,25.99
2019-05-01T16:42:55.761Z,25.94
2019-05-01T16:49:00.393Z,25.57
2019-05-01T16:55:07.858Z,26.84
2019-05-01T17:01:14.206Z,26.29
2019-05-01T17:07:32.042Z,25.44
2019-05-01T17:13:36.732Z,23.85
2019-05-01T17:19:41.290Z,23.78
2019-05-01T17:25:45.934Z,24.26
2019-05-01T17:31:50.621Z,22.94
2019-05-01T17:37:55.192Z,22.55
2019-05-01T17:44:20.123Z,22.12
2019-05-01T17:50:25.437Z,21.13
2019-05-01T17:56:30.014Z,20.35
2019-05-01T18:02:36.270Z,20.07
2019-05-01T18:08:40.816Z,19.73
2019-05-01T18:14:45.398Z,18.99
2019-05-01T18:20:50.032Z,18.63
2019-05-01T18:26:59.200Z,18.05
2019-05-01T18:33:04.215Z,17.57
2019-05-01T18:39:28.093Z,17.06
2019-05-01T18:45:51.950Z,16.27
2019-05-01T18:51:56.511Z,15.79
2019-05-01T18:58:01.071Z,15.55
2019-05-01T19:04:06.086Z,15.10
2019-05-01T19:10:11.089Z,14.53
2019-05-01T19:16:15.807Z,14.15
2019-05-01T19:22:20.353Z,13.87
2019-05-01T19:28:25.084Z,13.71
2019-05-01T19:34:29.647Z,13.69
2019-05-01T19:40:34.245Z,13.33
2019-05-01T19:46:38.885Z,13.19
2019-05-01T19:52:43.585Z,12.99
2019-05-01T19:58:48.330Z,12.84
2019-05-01T20:04:52.934Z,12.84
2019-05-01T20:10:57.536Z,12.65
2019-05-01T20:17:04.813Z,12.67
2019-05-01T20:23:08.853Z,12.56
2019-05-01T20:29:13.420Z,12.39
2019-05-01T20:35:18.039Z,12.16
2019-05-01T20:41:22.607Z,12.08
2019-05-01T20:47:35.078Z,11.90
2019-05-01T20:53:33.519Z,11.81
2019-05-01T20:59:39.168Z,11.60
2019-05-01T21:05:48.453Z,11.64
2019-05-01T21:12:05.073Z,11.69
2019-05-01T21:18:03.651Z,11.82
2019-05-01T21:24:08.267Z,11.41
2019-05-01T21:30:13.905Z,11.42
2019-05-01T21:36:18.552Z,10.95
2019-05-01T21:42:24.474Z,10.89
2019-05-01T21:48:29.281Z,11.08
2019-05-01T21:54:33.847Z,11.06
2019-05-01T22:00:40.611Z,11.08
2019-05-01T22:06:46.855Z,10.98
2019-05-01T22:12:51.904Z,10.90
2019-05-01T22:18:56.374Z,11.02
2019-05-01T22:25:02.587Z,10.82
2019-05-01T22:31:24.798Z,10.65
2019-05-01T22:37:29.428Z,10.53
2019-05-01T22:43:34.342Z,10.37
2019-05-01T22:49:38.961Z,10.46
2019-05-01T22:55:43.515Z,10.28
2019-05-01T23:01:52.974Z,10.28
2019-05-01T23:07:57.159Z,10.28
2019-05-01T23:14:02.118Z,10.29
2019-05-01T23:20:09.446Z,10.20
2019-05-01T23:26:16.651Z,10.13
2019-05-01T23:32:20.435Z,10.03
2019-05-01T23:38:24.984Z,9.91
2019-05-01T23:44:29.532Z,9.55
2019-05-01T23:50:34.146Z,9.37
2019-05-01T23:56:38.693Z,9.43
